createdAt,value
2023-02-16T00:01:15.106Z,40.95
2023-02-16T00:03:42.130Z,32.65
2023-02-16T00:06:14.405Z,39.83
2023-02-16T00:08:41.419Z,45.80
2023-02-16T00:11:40.426Z,48.00
2023-02-16T00:14:10.380Z,44.72
2023-02-16T00:16:40.669Z,39.65
2023-02-16T00:19:38.130Z,47.15
2023-02-16T00:22:06.571Z,47.08
2023-02-16T00:24:33.601Z,42.35
2023-02-16T00:27:01.018Z,46.92
2023-02-16T00:29:34.259Z,53.03
2023-02-16T00:32:05.796Z,50.28
2023-02-16T00:34:34.161Z,42.70
2023-02-16T00:37:04.394Z,52.15
2023-02-16T00:39:31.662Z,49.83
2023-02-16T00:42:02.241Z,49.33
2023-02-16T00:44:37.866Z,54.25
2023-02-16T00:47:38.276Z,57.78
2023-02-16T00:50:18.933Z,52.53
2023-02-16T00:52:46.890Z,42.70
2023-02-16T00:55:16.414Z,46.75
2023-02-16T00:57:52.420Z,56.92
2023-02-16T01:00:24.575Z,55.75
2023-02-16T01:02:53.475Z,55.80
2023-02-16T01:05:20.452Z,56.42
2023-02-16T01:08:06.045Z,53.50
2023-02-16T01:10:55.554Z,53.72
2023-02-16T01:13:24.685Z,62.35
2023-02-16T01:15:51.637Z,56.05
2023-02-16T01:18:21.438Z,64.13
2023-02-16T01:20:48.711Z,62.22
2023-02-16T01:23:15.801Z,72.15
2023-02-16T01:25:43.106Z,78.05
2023-02-16T01:28:22.766Z,75.40
2023-02-16T01:30:53.902Z,74.78
2023-02-16T01:33:21.614Z,86.68
2023-02-16T01:35:50.079Z,80.32
2023-02-16T01:38:27.321Z,76.57
2023-02-16T01:41:22.530Z,74.60
2023-02-16T01:44:12.998Z,85.22
2023-02-16T01:46:46.983Z,86.95
2023-02-16T01:49:18.117Z,81.70
2023-02-16T01:52:19.328Z,95.28
2023-02-16T01:54:55.913Z,91.35
2023-02-16T01:57:43.596Z,90.35
2023-02-16T02:00:28.238Z,93.30
2023-02-16T02:03:21.596Z,93.93
2023-02-16T02:05:50.216Z,100.10
2023-02-16T02:08:26.610Z,88.65
2023-02-16T02:11:02.815Z,105.75
2023-02-16T02:13:39.944Z,104.20
2023-02-16T02:16:08.448Z,100.25
2023-02-16T02:18:35.482Z,100.97
2023-02-16T02:21:43.008Z,101.47
2023-02-16T02:24:40.137Z,104.65
2023-02-16T02:27:10.409Z,103.18
2023-02-16T02:30:16.128Z,100.80
2023-02-16T02:32:50.326Z,107.22
2023-02-16T02:35:53.052Z,95.82
2023-02-16T02:38:50.664Z,98.45
2023-02-16T02:41:55.437Z,113.15
2023-02-16T02:44:27.027Z,106.05
2023-02-16T02:46:54.045Z,115.50
2023-02-16T02:49:23.644Z,110.05
2023-02-16T02:51:51.324Z,114.85
2023-02-16T02:54:45.230Z,113.18
2023-02-16T02:57:45.776Z,117.65
2023-02-16T03:00:38.136Z,108.57
2023-02-16T03:03:12.331Z,127.68
2023-02-16T03:05:43.424Z,128.52
2023-02-16T03:08:14.399Z,122.63
2023-02-16T03:11:08.802Z,125.88
2023-02-16T03:13:43.330Z,114.85
2023-02-16T03:16:23.598Z,117.65
2023-02-16T03:19:09.509Z,123.32
2023-02-16T03:21:55.266Z,118.15
2023-02-16T03:24:49.905Z,124.53
2023-02-16T03:27:42.958Z,127.75
2023-02-16T03:30:12.757Z,138.35
2023-02-16T03:32:43.511Z,132.18
2023-02-16T03:35:12.902Z,123.00
2023-02-16T03:37:44.985Z,129.00
2023-02-16T03:40:30.417Z,115.32
2023-02-16T03:43:03.920Z,136.50
2023-02-16T03:45:35.231Z,123.22
2023-02-16T03:48:02.887Z,129.25
2023-02-16T03:50:30.095Z,132.63
2023-02-16T03:53:07.010Z,129.63
2023-02-16T03:55:40.311Z,142.60
2023-02-16T03:58:12.231Z,139.75
2023-02-16T04:00:40.297Z,127.93
2023-02-16T04:03:09.136Z,135.05
2023-02-16T04:05:36.904Z,130.65
2023-02-16T04:08:04.776Z,134.68
2023-02-16T04:10:31.639Z,126.70
2023-02-16T04:13:01.928Z,134.98
2023-02-16T04:15:30.515Z,136.20
2023-02-16T04:17:58.124Z,137.07
2023-02-16T04:20:31.546Z,128.45
2023-02-16T04:22:58.710Z,135.15
2023-02-16T04:25:25.673Z,143.05
2023-02-16T04:27:53.323Z,143.70
2023-02-16T04:30:26.876Z,148.25
2023-02-16T04:32:53.933Z,158.75
2023-02-16T04:35:21.152Z,149.07
2023-02-16T04:37:47.929Z,153.75
2023-02-16T04:40:16.799Z,148.15
2023-02-16T04:42:45.052Z,152.00
2023-02-16T04:45:15.091Z,146.70
2023-02-16T04:47:42.174Z,148.45
2023-02-16T04:50:09.940Z,145.27
2023-02-16T04:52:37.642Z,156.95
2023-02-16T04:55:05.860Z,175.00
2023-02-16T04:57:32.826Z,152.55
2023-02-16T04:59:59.541Z,166.30
2023-02-16T05:02:26.278Z,163.90
2023-02-16T05:04:53.025Z,169.00
2023-02-16T05:07:19.914Z,158.25
2023-02-16T05:09:46.627Z,145.88
2023-02-16T05:12:32.170Z,158.57
2023-02-16T05:14:58.864Z,155.48
2023-02-16T05:17:27.075Z,163.88
2023-02-16T05:19:59.443Z,163.13
2023-02-16T05:22:28.655Z,169.57
2023-02-16T05:24:55.770Z,159.63
2023-02-16T05:27:24.970Z,159.68
2023-02-16T05:29:52.203Z,172.38
2023-02-16T05:32:20.003Z,170.38
2023-02-16T05:34:47.542Z,147.45
2023-02-16T05:37:16.454Z,191.40
2023-02-16T05:39:43.875Z,161.55
2023-02-16T05:42:11.058Z,176.15
2023-02-16T05:44:38.793Z,170.48
2023-02-16T05:47:08.807Z,167.80
2023-02-16T05:49:36.347Z,162.63
2023-02-16T05:52:03.619Z,162.02
2023-02-16T05:54:30.859Z,147.13
2023-02-16T05:56:59.450Z,161.68
2023-02-16T05:59:26.693Z,147.43
2023-02-16T06:01:54.308Z,144.18
2023-02-16T06:04:26.472Z,156.85
2023-02-16T06:06:55.620Z,148.45
2023-02-16T06:09:26.740Z,154.25
2023-02-16T06:11:53.867Z,156.88
2023-02-16T06:14:21.421Z,145.65
2023-02-16T06:16:51.381Z,151.43
2023-02-16T06:19:20.030Z,142.40
2023-02-16T06:21:47.657Z,156.48
2023-02-16T06:24:15.291Z,140.00
2023-02-16T06:26:43.432Z,137.45
2023-02-16T06:29:10.701Z,151.45
2023-02-16T06:31:37.852Z,123.18
2023-02-16T06:34:05.706Z,132.93
2023-02-16T06:36:32.700Z,124.97
2023-02-16T06:39:00.053Z,133.32
2023-02-16T06:41:37.908Z,146.13
2023-02-16T06:44:07.909Z,130.13
2023-02-16T06:46:38.750Z,136.88
2023-02-16T06:49:05.842Z,136.27
2023-02-16T06:51:33.133Z,134.77
2023-02-16T06:54:00.272Z,134.93
2023-02-16T06:56:27.952Z,138.23
2023-02-16T06:58:55.031Z,123.70
2023-02-16T07:01:26.006Z,125.18
2023-02-16T07:03:55.080Z,139.52
2023-02-16T07:06:24.407Z,125.97
2023-02-16T07:08:52.284Z,124.25
2023-02-16T07:11:23.315Z,115.63
2023-02-16T07:13:50.774Z,128.70
2023-02-16T07:16:20.687Z,120.03
2023-02-16T07:18:48.456Z,121.30
2023-02-16T07:21:16.813Z,122.13
2023-02-16T07:23:44.139Z,126.35
2023-02-16T07:26:11.551Z,115.80
2023-02-16T07:28:38.681Z,128.10
2023-02-16T07:31:12.826Z,105.18
2023-02-16T07:33:40.617Z,105.43
2023-02-16T07:36:08.479Z,120.20
2023-02-16T07:38:41.995Z,129.70
2023-02-16T07:41:10.752Z,109.20
2023-02-16T07:43:39.552Z,130.40
2023-02-16T07:46:10.827Z,132.30
2023-02-16T07:48:38.044Z,120.18
2023-02-16T07:51:05.585Z,107.22
2023-02-16T07:53:33.538Z,124.97
2023-02-16T07:56:00.875Z,114.95
2023-02-16T07:58:30.935Z,116.55
2023-02-16T08:01:07.418Z,111.82
2023-02-16T08:03:34.517Z,117.80
2023-02-16T08:06:02.370Z,109.78
2023-02-16T08:08:32.688Z,119.18
2023-02-16T08:11:03.446Z,123.82
2023-02-16T08:13:30.694Z,108.97
2023-02-16T08:16:03.082Z,124.70
2023-02-16T08:18:30.872Z,137.13
2023-02-16T08:21:04.077Z,109.88
2023-02-16T08:23:31.947Z,117.78
2023-02-16T08:26:01.819Z,143.82
2023-02-16T08:28:32.604Z,156.00
2023-02-16T08:31:04.196Z,134.07
2023-02-16T08:33:31.551Z,113.63
2023-02-16T08:35:59.034Z,134.13
2023-02-16T08:38:26.091Z,163.02
2023-02-16T08:40:56.123Z,150.18
2023-02-16T08:43:24.141Z,142.98
2023-02-16T08:45:54.927Z,155.85
2023-02-16T08:48:23.674Z,183.70
2023-02-16T08:50:53.997Z,164.82
2023-02-16T08:53:23.466Z,153.25
2023-02-16T08:55:57.837Z,163.50
2023-02-16T08:58:29.968Z,176.73
2023-02-16T09:00:58.536Z,158.57
2023-02-16T09:03:28.933Z,203.57
2023-02-16T09:06:00.637Z,168.45
2023-02-16T09:08:31.489Z,165.20
2023-02-16T09:11:05.784Z,176.95
2023-02-16T09:13:36.604Z,186.05
2023-02-16T09:16:05.926Z,166.77
2023-02-16T09:18:33.284Z,185.63
2023-02-16T09:21:11.093Z,170.85
2023-02-16T09:23:44.393Z,161.75
2023-02-16T09:26:12.359Z,129.32
2023-02-16T09:28:40.681Z,224.43
2023-02-16T09:31:25.716Z,169.13
2023-02-16T09:33:56.181Z,163.07
2023-02-16T09:36:23.653Z,150.07
2023-02-16T09:38:51.596Z,162.70
2023-02-16T09:41:52.090Z,156.82
2023-02-16T09:44:49.988Z,153.73
2023-02-16T09:47:34.865Z,170.55
2023-02-16T09:50:06.729Z,178.52
2023-02-16T09:52:44.430Z,152.50
2023-02-16T09:55:15.308Z,150.05
2023-02-16T09:57:58.646Z,109.57
2023-02-16T10:00:34.752Z,156.82
2023-02-16T10:03:15.274Z,153.65
2023-02-16T10:06:14.441Z,144.55
2023-02-16T10:08:51.847Z,146.10
2023-02-16T10:11:46.787Z,164.82
2023-02-16T10:14:22.236Z,150.90
2023-02-16T10:17:06.723Z,147.60
2023-02-16T10:20:08.272Z,133.20
2023-02-16T10:22:39.123Z,136.93
2023-02-16T10:25:28.519Z,139.05
2023-02-16T10:28:22.655Z,132.85
2023-02-16T10:31:31.307Z,137.02
2023-02-16T10:34:17.069Z,139.77
2023-02-16T10:36:47.172Z,145.27
2023-02-16T10:39:30.171Z,136.82
2023-02-16T10:42:17.881Z,134.77
2023-02-16T10:44:51.057Z,131.10
2023-02-16T10:47:39.009Z,127.22
2023-02-16T10:50:07.557Z,136.25
2023-02-16T10:52:39.372Z,131.77
2023-02-16T10:55:07.076Z,141.65
2023-02-16T10:57:35.082Z,142.73
2023-02-16T11:00:13.570Z,145.30
2023-02-16T11:02:44.259Z,151.68
2023-02-16T11:05:26.540Z,147.23
2023-02-16T11:08:01.546Z,147.00
2023-02-16T11:10:50.985Z,130.27
2023-02-16T11:13:35.967Z,147.80
2023-02-16T11:16:10.977Z,139.02
2023-02-16T11:18:42.755Z,129.18
2023-02-16T11:21:12.515Z,127.40
2023-02-16T11:23:44.980Z,123.97
2023-02-16T11:26:15.782Z,119.05
2023-02-16T11:28:45.897Z,109.90
2023-02-16T11:31:21.864Z,121.30
2023-02-16T11:33:58.407Z,127.03
2023-02-16T11:36:42.794Z,123.57
2023-02-16T11:39:27.661Z,115.60
2023-02-16T11:42:06.286Z,136.13
2023-02-16T11:44:34.336Z,109.30
2023-02-16T11:47:05.634Z,127.00
2023-02-16T11:49:39.254Z,107.60
2023-02-16T11:52:27.721Z,116.93
2023-02-16T11:54:57.675Z,91.28
2023-02-16T11:57:28.581Z,101.07
2023-02-16T12:00:05.002Z,101.93
2023-02-16T12:02:40.752Z,98.70
2023-02-16T12:05:14.923Z,102.90
2023-02-16T12:07:58.222Z,119.63
2023-02-16T12:10:38.192Z,90.47
2023-02-16T12:13:16.622Z,103.75
2023-02-16T12:16:07.415Z,98.60
2023-02-16T12:19:07.997Z,81.40
2023-02-16T12:21:45.599Z,79.88
2023-02-16T12:24:41.863Z,87.65
2023-02-16T12:27:28.531Z,87.53
2023-02-16T12:30:16.163Z,88.30
2023-02-16T12:33:08.834Z,91.68
2023-02-16T12:35:50.863Z,87.38
2023-02-16T12:38:21.846Z,106.32
2023-02-16T12:41:02.711Z,87.93
2023-02-16T12:43:52.224Z,95.68
2023-02-16T12:46:42.045Z,91.57
2023-02-16T12:49:18.817Z,80.07
2023-02-16T12:52:06.985Z,76.20
2023-02-16T12:55:01.440Z,81.82
2023-02-16T12:57:31.478Z,74.45
2023-02-16T13:00:17.831Z,76.45
2023-02-16T13:02:51.523Z,72.53
2023-02-16T13:05:26.560Z,76.35
2023-02-16T13:08:01.727Z,76.70
2023-02-16T13:10:44.314Z,71.80
2023-02-16T13:13:25.835Z,69.22
2023-02-16T13:19:02.865Z,66.22
2023-02-16T13:21:52.036Z,85.00
2023-02-16T13:24:38.445Z,81.28
2023-02-16T13:27:14.300Z,73.72
2023-02-16T13:30:22.995Z,74.90
2023-02-16T13:33:24.653Z,66.82
2023-02-16T13:36:19.061Z,60.40
2023-02-16T13:39:02.998Z,62.08
2023-02-16T13:42:07.188Z,56.35
2023-02-16T13:44:47.786Z,51.28
2023-02-16T13:47:18.518Z,55.25
2023-02-16T13:49:50.640Z,50.65
2023-02-16T13:52:41.189Z,54.65
2023-02-16T13:55:35.315Z,55.25
2023-02-16T13:58:14.037Z,43.35
2023-02-16T14:00:47.894Z,56.20
2023-02-16T14:03:18.863Z,46.13
2023-02-16T14:05:49.420Z,48.80
2023-02-16T14:08:28.293Z,42.03
2023-02-16T14:10:56.298Z,50.90
2023-02-16T14:13:32.894Z,44.28
2023-02-16T14:16:25.489Z,47.17
2023-02-16T14:18:57.730Z,51.60
2023-02-16T14:21:36.946Z,41.47
2023-02-16T14:24:13.684Z,45.67
2023-02-16T14:27:01.457Z,47.83
2023-02-16T14:29:58.725Z,37.67
2023-02-16T14:32:29.584Z,38.92
2023-02-16T14:35:04.355Z,45.38
2023-02-16T14:37:39.782Z,37.20
2023-02-16T14:40:18.216Z,37.55
2023-02-16T14:42:55.839Z,46.08
2023-02-16T14:45:37.733Z,36.88
2023-02-16T14:48:28.207Z,49.85
2023-02-16T14:51:22.465Z,38.63
2023-02-16T14:54:22.098Z,40.17
2023-02-16T14:57:02.633Z,43.95
2023-02-16T14:59:44.023Z,43.85
2023-02-16T15:02:35.480Z,47.63
2023-02-16T15:05:20.303Z,33.10
2023-02-16T15:07:53.563Z,37.80
2023-02-16T15:10:27.101Z,33.30
2023-02-16T15:12:56.381Z,41.00
2023-02-16T15:15:47.145Z,38.70
2023-02-16T15:18:23.665Z,36.30
2023-02-16T15:20:56.305Z,32.13
2023-02-16T15:23:25.879Z,44.63
2023-02-16T15:25:59.700Z,36.22
2023-02-16T15:28:35.954Z,36.60
2023-02-16T15:31:34.390Z,34.70
2023-02-16T15:34:08.222Z,32.30
2023-02-16T15:36:42.392Z,32.45
2023-02-16T15:39:17.696Z,35.03
2023-02-16T15:41:49.592Z,35.78
2023-02-16T15:44:36.577Z,32.55
2023-02-16T15:47:15.035Z,35.55
2023-02-16T15:49:43.993Z,31.67
2023-02-16T15:52:23.156Z,32.28
2023-02-16T15:54:50.374Z,35.47
2023-02-16T15:57:27.694Z,36.75
2023-02-16T15:59:58.720Z,32.38
2023-02-16T16:02:39.804Z,37.58
2023-02-16T16:05:09.810Z,33.95
2023-02-16T16:07:40.135Z,30.73
2023-02-16T16:10:30.726Z,34.35
2023-02-16T16:13:28.391Z,36.90
2023-02-16T16:16:01.612Z,33.03
2023-02-16T16:18:50.450Z,29.15
2023-02-16T16:21:20.209Z,31.33
2023-02-16T16:23:59.389Z,37.72
2023-02-16T16:26:29.482Z,31.67
2023-02-16T16:29:00.112Z,37.03
2023-02-16T16:31:28.293Z,36.70
2023-02-16T16:34:01.718Z,31.70
2023-02-16T16:36:37.968Z,35.45
2023-02-16T16:39:17.110Z,33.67
2023-02-16T16:42:17.745Z,33.97
2023-02-16T16:45:05.504Z,33.22
2023-02-16T16:47:34.962Z,38.33
2023-02-16T16:50:29.952Z,33.13
2023-02-16T16:52:58.167Z,39.38
2023-02-16T16:55:32.563Z,42.47
2023-02-16T16:58:00.207Z,39.50
2023-02-16T17:00:31.013Z,38.67
2023-02-16T17:02:58.681Z,34.78
2023-02-16T17:05:30.254Z,36.90
2023-02-16T17:07:57.342Z,40.72
2023-02-16T17:10:25.360Z,35.65
2023-02-16T17:12:58.414Z,36.22
2023-02-16T17:15:44.318Z,36.13
2023-02-16T17:18:17.266Z,38.65
2023-02-16T17:20:45.491Z,32.75
2023-02-16T17:23:18.946Z,30.02
2023-02-16T17:25:56.839Z,41.88
2023-02-16T17:28:24.325Z,38.35
2023-02-16T17:30:55.461Z,33.97
2023-02-16T17:33:23.325Z,26.98
2023-02-16T17:35:50.484Z,35.95
2023-02-16T17:38:20.260Z,32.08
2023-02-16T17:40:49.074Z,37.17
2023-02-16T17:43:17.722Z,27.08
2023-02-16T17:45:45.661Z,31.88
2023-02-16T17:48:21.306Z,31.08
2023-02-16T17:50:49.426Z,35.70
2023-02-16T17:53:18.730Z,28.27
2023-02-16T17:55:47.126Z,32.08
2023-02-16T17:58:14.453Z,29.60
2023-02-16T18:00:41.912Z,25.75
2023-02-16T18:03:09.046Z,32.97
2023-02-16T18:05:37.075Z,31.73
2023-02-16T18:08:04.443Z,29.27
2023-02-16T18:10:38.373Z,26.42
2023-02-16T18:13:06.639Z,26.45
2023-02-16T18:15:34.236Z,25.08
2023-02-16T18:18:01.462Z,24.70
2023-02-16T18:20:28.210Z,29.02
2023-02-16T18:23:00.664Z,24.30
2023-02-16T18:25:27.852Z,25.50
2023-02-16T18:27:56.058Z,26.95
2023-02-16T18:30:23.974Z,23.60
2023-02-16T18:32:50.969Z,40.45
2023-02-16T18:35:18.686Z,31.20
2023-02-16T18:37:46.886Z,26.50
2023-02-16T18:40:17.518Z,25.63
2023-02-16T18:42:46.708Z,31.52
2023-02-16T18:45:14.647Z,29.00
2023-02-16T18:47:42.626Z,34.45
2023-02-16T18:50:10.135Z,31.60
2023-02-16T18:52:36.919Z,32.95
2023-02-16T18:55:04.605Z,33.17
2023-02-16T18:57:31.402Z,34.47
2023-02-16T19:00:03.780Z,36.15
2023-02-16T19:02:30.721Z,33.03
2023-02-16T19:04:57.720Z,33.38
2023-02-16T19:07:24.666Z,30.73
2023-02-16T19:09:51.442Z,31.00
2023-02-16T19:12:18.331Z,36.83
2023-02-16T19:14:45.245Z,30.58
2023-02-16T19:17:12.084Z,35.97
2023-02-16T19:19:42.673Z,34.65
2023-02-16T19:22:09.878Z,36.93
2023-02-16T19:24:38.444Z,33.65
2023-02-16T19:27:07.968Z,26.48
2023-02-16T19:29:35.063Z,37.53
2023-02-16T19:32:01.902Z,34.97
2023-02-16T19:34:28.945Z,33.55
2023-02-16T19:36:55.790Z,35.97
2023-02-16T19:39:22.668Z,31.75
2023-02-16T19:41:49.459Z,37.20
2023-02-16T19:44:16.245Z,31.23
2023-02-16T19:46:43.447Z,37.20
2023-02-16T19:49:14.003Z,23.88
2023-02-16T19:51:41.362Z,38.60
2023-02-16T19:54:09.052Z,40.75
2023-02-16T19:56:40.360Z,36.58
2023-02-16T19:59:08.147Z,30.58
2023-02-16T20:01:35.404Z,36.00
2023-02-16T20:04:03.056Z,34.03
2023-02-16T20:06:40.750Z,36.97
2023-02-16T20:09:09.172Z,34.83
2023-02-16T20:11:39.179Z,35.45
2023-02-16T20:14:06.408Z,32.78
2023-02-16T20:16:33.471Z,30.90
2023-02-16T20:19:00.729Z,32.25
2023-02-16T20:21:29.312Z,39.70
2023-02-16T20:23:59.422Z,34.05
2023-02-16T20:26:29.010Z,29.67
2023-02-16T20:28:56.484Z,40.85
2023-02-16T20:31:33.494Z,38.33
2023-02-16T20:34:01.282Z,32.53
2023-02-16T20:36:28.217Z,24.33
2023-02-16T20:38:58.637Z,37.85
2023-02-16T20:41:25.785Z,37.90
2023-02-16T20:43:53.041Z,26.55
2023-02-16T20:46:26.554Z,31.65
2023-02-16T20:48:54.017Z,39.17
2023-02-16T20:51:21.598Z,36.25
2023-02-16T20:53:48.826Z,26.85
2023-02-16T20:56:21.297Z,31.30
2023-02-16T20:58:50.871Z,31.85
2023-02-16T21:01:28.167Z,36.97
2023-02-16T21:03:58.469Z,32.42
2023-02-16T21:06:25.830Z,39.42
2023-02-16T21:08:52.745Z,30.27
2023-02-16T21:11:23.126Z,33.72
2023-02-16T21:13:50.277Z,31.20
2023-02-16T21:16:18.348Z,33.80
2023-02-16T21:18:45.600Z,32.40
2023-02-16T21:21:15.731Z,32.40
2023-02-16T21:23:49.313Z,39.90
2023-02-16T21:26:17.688Z,29.63
2023-02-16T21:28:44.793Z,34.70
2023-02-16T21:31:20.624Z,27.38
2023-02-16T21:33:49.442Z,28.23
2023-02-16T21:36:19.339Z,26.77
2023-02-16T21:38:46.873Z,29.80
2023-02-16T21:41:25.726Z,33.22
2023-02-16T21:44:07.042Z,33.13
2023-02-16T21:46:45.124Z,35.15
2023-02-16T21:49:14.743Z,34.90
2023-02-16T21:51:42.825Z,29.08
2023-02-16T21:54:14.060Z,30.98
2023-02-16T21:59:15.005Z,29.67
2023-02-16T22:01:45.207Z,32.60
2023-02-16T22:04:14.233Z,29.95
2023-02-16T22:06:44.026Z,29.45
2023-02-16T22:09:14.301Z,29.95
2023-02-16T22:11:41.633Z,26.40
2023-02-16T22:14:08.508Z,29.35
2023-02-16T22:16:36.784Z,30.73
2023-02-16T22:19:09.156Z,29.10
2023-02-16T22:21:38.239Z,27.75
2023-02-16T22:24:05.807Z,27.95
2023-02-16T22:26:35.401Z,28.73
2023-02-16T22:29:03.891Z,27.15
2023-02-16T22:31:30.749Z,24.13
2023-02-16T22:34:02.922Z,22.27
2023-02-16T22:36:30.175Z,31.50
2023-02-16T22:38:57.204Z,30.02
2023-02-16T22:41:24.782Z,27.85
2023-02-16T22:43:56.000Z,27.95
2023-02-16T22:46:24.308Z,23.08
2023-02-16T22:48:51.920Z,24.05
2023-02-16T22:51:20.389Z,24.77
2023-02-16T22:53:48.024Z,26.98
2023-02-16T22:56:17.353Z,26.92
2023-02-16T22:58:44.490Z,23.42
2023-02-16T23:01:18.131Z,23.25
2023-02-16T23:03:49.939Z,24.83
2023-02-16T23:06:20.476Z,20.83
2023-02-16T23:08:52.297Z,23.97
2023-02-16T23:11:19.007Z,28.42
2023-02-16T23:13:45.867Z,22.98
2023-02-16T23:16:15.022Z,29.02
2023-02-16T23:18:42.561Z,24.90
2023-02-16T23:21:19.047Z,25.95
2023-02-16T23:23:47.432Z,30.50
2023-02-16T23:26:14.660Z,29.48
2023-02-16T23:28:43.268Z,25.13
2023-02-16T23:31:12.671Z,30.83
2023-02-16T23:33:39.627Z,35.97
2023-02-16T23:36:07.042Z,36.63
2023-02-16T23:38:34.037Z,31.55
2023-02-16T23:41:06.675Z,30.73
2023-02-16T23:43:33.716Z,36.42
2023-02-16T23:46:01.603Z,33.78
2023-02-16T23:48:29.175Z,30.80
2023-02-16T23:50:56.845Z,32.05
2023-02-16T23:53:25.936Z,34.55
2023-02-16T23:56:06.296Z,32.78
2023-02-16T23:58:41.232Z,37.47
